This is the latest recevied weather packets stored in our database for station/object CT2IRJ-11. If no packets are shown the sender has not sent any weather packets the latest 10 day(s).
| Time | Temp. | Humidity | Pressure | Rain* | Wind** | Luminosity | Snow |
|---|---|---|---|---|---|---|---|
| 1777896810 | 20° C | 58% | 1016.6 hPa | 0 mm | - | 571 W/m² | - |
| 1777896510 | 20° C | 59% | 1016.3 hPa | 0 mm | - | 627 W/m² | - |
| 1777896211 | 20° C | 59% | 1016.6 hPa | 0 mm | - | 479 W/m² | - |
| 1777895630 | 21.11° C | 56% | 1016.6 hPa | 0 mm | - | 634 W/m² | - |
| 1777895309 | 20° C | 58% | 1016.6 hPa | 0 mm | - | 712 W/m² | - |
| 1777895013 | 20.56° C | 56% | 1016.6 hPa | 0 mm | - | 323 W/m² | - |
| 1777894709 | 20° C | 56% | 1016.6 hPa | 0 mm | - | 892 W/m² | - |
| 1777894409 | 18.89° C | 66% | 1016.6 hPa | 0 mm | - | 583 W/m² | - |
| 1777894111 | 17.78° C | 69% | 1016.9 hPa | 0 mm | - | 323 W/m² | - |
| 1777893810 | 17.78° C | 69% | 1016.9 hPa | 0 mm | - | 308 W/m² | - |
| 1777893510 | 18.33° C | 68% | 1016.9 hPa | 0 mm | - | 276 W/m² | - |
| 1777893210 | 18.33° C | 65% | 1016.9 hPa | 0 mm | - | 302 W/m² | - |
| 1777892909 | 19.44° C | 65% | 1016.9 hPa | 0 mm | - | 333 W/m² | - |
| 1777892610 | 19.44° C | 62% | 1016.9 hPa | 0 mm | - | 387 W/m² | - |
| 1777892309 | 19.44° C | 61% | 1016.9 hPa | 0 mm | - | 388 W/m² | - |
| 1777892010 | 20° C | 66% | 1016.9 hPa | 0 mm | - | 371 W/m² | - |
| 1777891709 | 20° C | 65% | 1017.3 hPa | 0 mm | - | 724 W/m² | - |
| 1777891410 | 19.44° C | 68% | 1016.9 hPa | 0 mm | - | 865 W/m² | - |
| 1777890825 | 18.89° C | 69% | 1016.9 hPa | 0.25 mm | - | 524 W/m² | - |
| 1777890509 | 19.44° C | 70% | 1016.9 hPa | 0.25 mm | - | 633 W/m² | - |
| 1777890210 | 18.33° C | 76% | 1016.9 hPa | 0.25 mm | - | 834 W/m² | - |
| 1777889910 | 16.67° C | 78% | 1017.3 hPa | 0.25 mm | - | - | - |
| 1777889609 | 16.67° C | 82% | 1016.9 hPa | 0.25 mm | - | 340 W/m² | - |
| 1777889309 | 16.11° C | 83% | 1016.9 hPa | 0.25 mm | - | 254 W/m² | - |
| 1777889010 | 16.11° C | 84% | 1017.3 hPa | 0.25 mm | - | 203 W/m² | - |
* Rain latest hour (hover to see other rain measurements)
** Current wind speed in m/s (hover to see current wind gust speed)